ADDS METAR Data INFO
IDs: Format: Raw Decoded Include TAF

Data at: 0308 UTC 16 Aug 2018

PAVL 160253Z AUTO 25020KT 4SM HZ FEW065 11/07 A2979 RMK AO2 PK WND 24026/0237 SLP089 T01060072 58009 TSNO
PAVL 160153Z AUTO 24019KT 5SM HZ OVC060 11/07 A2980 RMK AO2 SLP091 T01060072 TSNO
PAVL 160053Z AUTO 25018KT 5SM HZ OVC060 11/07 A2982 RMK AO2 PK WND 24026/0017 SLP097 T01060067 TSNO
PAVL 152353Z AUTO 24020KT 5SM HZ OVC060 10/07 A2982 RMK AO2 PK WND 24028/2313 SLP097 60000 T01000072 10100 20078 56008 TSNO
PAVL 152153Z AUTO 24020KT 6SM HZ SCT055 SCT120 10/07 A2983 RMK AO2 SLP103 T01000072 TSNO
PAVL 152053Z AUTO 23017KT 6SM BR BKN080 OVC110 09/07 A2984 RMK AO2 SLP105 60000 T00940072 58015 TSNO
PAVL 151953Z AUTO 22015KT 7SM OVC090 09/07 A2985 RMK AO2 SLP109 T00890067 TSNO
PAVL 151853Z AUTO 24010KT 8SM OVC065 08/06 A2988 RMK AO2 RAE26 SLP118 P0000 T00830061 TSNO
PAVL 151753Z AUTO 27012KT 6SM -RA BR SCT060 OVC075 08/06 A2989 RMK AO2 RAB1654 SLP120 P0002 60002 T00780061 10083 20044 55003 TSNO
PAVL 151653Z AUTO 26014KT 8SM OVC065 08/05 A2988 RMK AO2 SLP118 T00830050 TSNO
PAVL 151553Z AUTO 26010KT 9SM OVC095 08/05 A2989 RMK AO2 SLP121 T00830050 TSNO
PAVL 151501Z AUTO 27010KT 9SM SCT011 08/06 A2989 RMK AO2 T00830061 TSNO
PAVL 151453Z AUTO 10SM BKN011 07/05 A2990 RMK AO2 SLP123 T00720050 56010 TSNO
PAVL 151353Z AUTO 33005KT 10SM CLR 06/04 A2991 RMK AO2 SLP129 T00610039 TSNO
PAVL 151253Z AUTO 33004KT 10SM CLR 05/02 A2993 RMK AO2 SLP134 T00500022 TSNO
PAVL 151153Z AUTO 33009KT 10SM CLR 05/02 A2993 RMK AO2 SLP134 T00500022 10089 20033 50000 TSNO
PAVL 151053Z AUTO 32005KT 10SM CLR 04/02 A2994 RMK AO2 SLP137 T00390017 TSNO
PAVL 150953Z AUTO 33010KT 10SM CLR 05/02 A2994 RMK AO2 SLP138 T00500022 TSNO
PAVL 150853Z AUTO 35019KT 10SM CLR 06/02 A2993 RMK AO2 SLP134 T00560022 401220039 50006 TSNO
PAVL 150653Z AUTO 35021KT 10SM CLR 07/02 A2991 RMK AO2 PK WND 01026/0630 SLP128 T00720022 TSNO
PAVL 150553Z AUTO 35023KT 10SM CLR 09/03 A2991 RMK AO2 SLP128 T00890028 10122 20089 50002 TSNO
PAVL 150453Z AUTO 35017KT 10SM CLR 10/02 A2991 RMK AO2 SLP130 T01000022 TSNO
PAVL 150353Z AUTO 36019KT 10SM CLR 11/03 A2991 RMK AO2 PK WND 01028/0307 SLP129 T01110028 TSNO
PAVL 150253Z AUTO 01023KT 10SM CLR 12/02 A2990 RMK AO2 PK WND 02031/0156 SLP126 T01170022 53004 TSNO
PAVL 150153Z AUTO 02026KT 10SM CLR 12/01 A2990 RMK AO2 PK WND 01032/0143 SLP124 T01170011 TSNO
PAVL 150053Z AUTO 03029G36KT 10SM CLR 12/02 A2989 RMK AO2 PK WND 03036/0053 SLP122 T01220017 TSNO
PAVL 142353Z AUTO 01030KT 10SM CLR 11/01 A2989 RMK AO2 PK WND 02036/2342 SLP121 T01110011 10111 20056 58002 TSNO
PAVL 142253Z AUTO 02028KT 10SM CLR 11/01 A2990 RMK AO2 PK WND 02032/2222 SLP124 T01110011 TSNO
PAVL 142153Z AUTO 01026KT 10SM CLR 11/00 A2989 RMK AO2 PK WND 01030/2148 SLP123 T01060000 TSNO
PAVL 142053Z AUTO 03024KT 10SM CLR 09/00 A2990 RMK AO2 PK WND 02034/2016 SLP124 T00940000 53002 TSNO
PAVL 141953Z AUTO 02025KT 10SM CLR 08/00 A2990 RMK AO2 PK WND 03032/1859 SLP123 T00780000 TSNO
PAVL 141853Z AUTO 02031G35KT 10SM CLR 07/M01 A2988 RMK AO2 PK WND 02035/1850 SLP119 T00671006 TSNO
PAVL 141753Z AUTO 01025KT 10SM CLR 05/M01 A2989 RMK AO2 PK WND 01031/1733 SLP122 T00501006 10050 20039 53008 TSNO
PAVL 141653Z AUTO 02023KT 10SM CLR 04/M01 A2988 RMK AO2 PK WND 01030/1554 SLP120 T00441006 TSNO
PAVL 141553Z AUTO 01023G27KT 10SM CLR 04/00 A2987 RMK AO2 PK WND 01031/1517 SLP115 T00390000 TSNO